Latest Coastal Weather Observations for Middle Percy Island

IDQ60701

Issued at 3:42 pm EST Saturday 22 June 2024 (issued every 10 minutes, with the page automatically refreshed every 10 minutes)

About coastal observations | Map of coastal stations | Coastal observations for QLD | Marine services | Other Formats
Station Details ID: 200001 Name: MIDDLE PERCY ISLAND Lat: -21.66 Lon: 150.27 Height: 208.7 m
Data from the previous 72 hours. | See also: Recent months at Middle Percy Island
Date/Time
EST
Wind Sea
Height
m
Swell Vis
km
Cloud Weather Temp
°C
Press
MSL
hPa
Rain since
9am
mm
Dir  Spd
kts
Gust
kts
Height
m
Period
s
Dir
22/03:30pm SSE 9 14 - - - - - - - 19.7 1017.6 0.2
22/03:00pm SSE 5 8 - - - - - - - 19.9 1017.8 0.2
22/02:30pm SSE 8 10 - - - - - - - 19.9 1017.6 0.2
22/02:00pm SE 4 6 - - - - - - - 19.8 1018.0 0.2
22/01:30pm SSE 4 6 - - - - - - - 19.6 1018.4 0.2
22/01:00pm S 5 12 - - - - - - - 19.6 1018.6 0.2
22/12:30pm ESE 4 5 - - - - - - - 19.8 1019.0 0.0
22/12:00pm ESE 4 6 - - - - - - - 19.6 1019.6 0.0
22/11:30am S 4 7 - - - - - - - 19.5 1020.0 0.0
22/11:00am S 6 7 - - - - - - - 19.8 1020.7 0.0
22/10:30am SSW 4 9 - - - - - - - 20.2 1020.6 0.0
22/10:00am ESE 1 3 - - - - - - - 20.5 1020.7 0.0
22/09:30am SSE 2 3 - - - - - - - 20.4 1020.6 0.0
22/09:00am CALM 0 0 - - - - - - - 20.4 1020.8 0.0
22/08:30am NNE 4 11 - - - - - - - 20.5 1020.4 0.0
22/08:00am ENE 7 10 - - - - - - - 20.5 1019.2 0.0
22/07:30am ENE 5 7 - - - - - - - 20.3 1019.6 0.0
22/07:00am ENE 4 6 - - - - - - - 20.1 1019.6 0.0
22/06:30am ENE 4 7 - - - - - - - 20.3 1019.6 0.0
22/06:00am ENE 5 7 - - - - - - - 20.0 1019.3 0.0
22/05:30am E 3 4 - - - - - - - 20.0 1019.3 0.0
22/05:00am E 2 5 - - - - - - - 20.2 1019.1 0.0
22/04:30am E 3 5 - - - - - - - 20.2 1018.7 0.0
22/04:00am ENE 7 9 - - - - - - - 20.3 1018.5 0.0
22/03:30am NE 9 13 - - - - - - - 20.2 1018.4 0.0
22/03:00am NE 5 8 - - - - - - - 20.1 1018.9 0.0
22/02:30am ENE 3 4 - - - - - - - 20.1 1018.7 0.0
22/02:00am ENE 5 10 - - - - - - - 20.2 1018.9 0.0
22/01:30am ENE 6 9 - - - - - - - 19.9 1018.9 0.0
22/01:00am ENE 6 7 - - - - - - - 19.9 1019.0 0.0
22/12:30am E 3 4 - - - - - - - 19.8 1019.3 0.0
22/12:00am ENE 3 5 - - - - - - - 19.8 1019.5 0.0
 
Date/Time
EST
Wind Sea
Height
m
Swell Vis
km
Cloud Weather Temp
°C
Press
MSL
hPa
Rain since
9am
mm
Dir  Spd
kts
Gust
kts
Height
m
Period
s
Dir
21/11:30pm ENE 5 7 - - - - - - - 19.8 1019.3 0.0
21/11:00pm ENE 5 7 - - - - - - - 20.0 1019.5 0.0
21/10:30pm E 4 5 - - - - - - - 19.9 1019.6 0.0
21/10:00pm E 5 6 - - - - - - - 19.9 1019.6 0.0
21/09:30pm E 4 5 - - - - - - - 19.7 1019.9 0.0
21/09:00pm ESE 4 4 - - - - - - - 19.6 1019.9 0.0
21/08:30pm SE 3 4 - - - - - - - 19.6 1019.9 0.0
21/08:00pm SE 4 5 - - - - - - - 19.6 1019.5 0.0
21/07:30pm SSE 4 5 - - - - - - - 19.6 1019.5 0.0
21/07:00pm S 5 6 - - - - - - - 19.6 1019.2 0.0
21/06:30pm S 5 7 - - - - - - - 19.4 1018.9 0.0
21/06:00pm S 5 6 - - - - - - - 19.5 1018.4 0.0
21/05:30pm SSW 4 5 - - - - - - - 19.5 1018.1 0.0
21/05:00pm S 3 4 - - - - - - - 19.8 1017.8 0.0
21/04:30pm S 5 5 - - - - - - - 20.1 1017.8 0.0
21/04:00pm SSW 5 7 - - - - - - - 20.5 1017.8 0.0
21/03:30pm SSW 6 7 - - - - - - - 20.7 1017.9 0.0
21/03:00pm SSW 4 7 - - - - - - - 21.1 1017.9 0.0
21/02:30pm SSW 4 6 - - - - - - - 22.5 1017.9 0.0
21/02:00pm WSW 3 5 - - - - - - - 22.6 1018.1 0.0
21/01:30pm NNW 3 6 - - - - - - - 23.9 1018.3 0.0
21/01:00pm N 5 8 - - - - - - - 23.2 1018.7 0.0
21/12:30pm NNE 5 8 - - - - - - - 24.0 1019.3 0.0
21/12:00pm N 6 8 - - - - - - - 23.0 1019.6 0.0
21/11:30am N 6 8 - - - - - - - 22.6 1020.2 0.0
21/11:00am NNE 5 8 - - - - - - - 22.7 1020.5 0.0
21/10:30am NNE 5 8 - - - - - - - 22.4 1020.4 0.0
21/10:00am N 4 8 - - - - - - - 22.5 1020.7 0.0
21/09:30am N 5 9 - - - - - - - 22.3 1020.8 0.0
21/09:00am NNE 4 8 - - - - - - - 22.1 1020.8 0.0
21/08:30am NNE 5 8 - - - - - - - 21.4 1020.6 0.0
21/08:00am NNE 6 9 - - - - - - - 20.8 1020.3 0.0
21/07:30am NNE 5 6 - - - - - - - 20.0 1019.8 0.0
21/07:00am NNE 6 7 - - - - - - - 19.1 1019.6 0.0
21/06:30am NNE 6 7 - - - - - - - 18.8 1019.2 0.0
21/06:00am NNE 6 8 - - - - - - - 18.8 1018.9 0.0
21/05:30am NNE 7 8 - - - - - - - 18.8 1018.6 0.0
21/05:00am NNE 6 9 - - - - - - - 18.8 1018.5 0.0
21/04:30am NNE 5 6 - - - - - - - 18.6 1018.4 0.0
21/04:00am NE 4 5 - - - - - - - 18.7 1018.2 0.0
21/03:30am NE 4 5 - - - - - - - 18.7 1018.1 0.0
21/03:00am NE 4 5 - - - - - - - 18.6 1018.2 0.0
21/02:30am NE 4 6 - - - - - - - 18.8 1018.3 0.0
21/02:00am NE 5 7 - - - - - - - 18.7 1018.3 0.0
21/01:30am NE 5 6 - - - - - - - 18.7 1018.5 0.0
21/01:00am NE 5 6 - - - - - - - 18.8 1019.0 0.0
21/12:30am NNE 6 7 - - - - - - - 18.8 1019.2 0.0
21/12:00am NE 5 6 - - - - - - - 18.9 1019.4 0.0
 
Date/Time
EST
Wind Sea
Height
m
Swell Vis
km
Cloud Weather Temp
°C
Press
MSL
hPa
Rain since
9am
mm
Dir  Spd
kts
Gust
kts
Height
m
Period
s
Dir
20/11:30pm NNE 6 7 - - - - - - - 18.8 1019.4 0.0
20/11:00pm NE 5 6 - - - - - - - 19.0 1019.5 0.0
20/10:30pm NE 4 5 - - - - - - - 19.0 1019.8 0.0
20/10:00pm ENE 4 5 - - - - - - - 19.1 1019.9 0.0
20/09:30pm ENE 4 5 - - - - - - - 19.3 1019.8 0.0
20/09:00pm NE 4 6 - - - - - - - 19.2 1019.4 0.0
20/08:30pm ENE 4 5 - - - - - - - 19.4 1019.4 0.0
20/08:00pm ENE 4 6 - - - - - - - 19.3 1019.0 0.0
20/07:30pm ENE 4 5 - - - - - - - 19.3 1018.9 0.0
20/07:00pm ENE 4 5 - - - - - - - 19.1 1018.6 0.0
20/06:30pm NE 4 5 - - - - - - - 19.4 1018.4 0.0
20/06:00pm ENE 3 5 - - - - - - - 19.4 1018.2 0.0
20/05:30pm NE 4 6 - - - - - - - 19.5 1018.1 0.0
20/05:00pm NE 5 7 - - - - - - - 20.4 1017.9 0.0
20/04:30pm NE 5 7 - - - - - - - 21.3 1017.7 0.0
20/04:00pm NE 5 6 - - - - - - - 21.9 1017.8 0.0
20/03:30pm NE 4 7 - - - - - - - 22.3 1017.5 0.0
20/03:00pm NE 5 9 - - - - - - - 22.2 1017.3 0.0
20/02:30pm NE 6 10 - - - - - - - 22.8 1017.4 0.0
20/02:00pm NE 7 9 - - - - - - - 22.3 1017.4 0.0
20/01:30pm NE 5 10 - - - - - - - 22.9 1017.7 0.0
20/01:00pm SE 6 10 - - - - - - - 22.5 1018.0 0.0
20/12:30pm SE 7 9 - - - - - - - 22.4 1018.3 0.0
20/12:00pm ESE 6 11 - - - - - - - 22.9 1018.5 0.0
20/11:30am SE 7 9 - - - - - - - 22.1 1018.9 0.0
20/11:00am ESE 6 10 - - - - - - - 22.3 1019.1 0.0
20/10:30am NE 5 8 - - - - - - - 22.7 1019.3 0.0
20/10:00am ESE 6 8 - - - - - - - 21.8 1019.3 0.0
20/09:30am ESE 6 8 - - - - - - - 21.8 1019.4 0.0
20/09:00am SE 5 8 - - - - - - - 21.1 1019.6 0.0
20/08:30am ESE 4 6 - - - - - - - 21.4 1019.2 0.0
20/08:00am E 4 7 - - - - - - - 20.8 1018.9 0.0
20/07:30am E 4 6 - - - - - - - 20.0 1018.6 0.0
20/07:00am E 4 5 - - - - - - - 18.7 1018.5 0.0
20/06:30am ENE 5 6 - - - - - - - 18.2 1018.1 0.0
20/06:00am E 4 5 - - - - - - - 17.8 1017.8 0.0
20/05:30am E 3 3 - - - - - - - 17.7 1017.7 0.0
20/05:00am ESE 2 3 - - - - - - - 17.8 1017.6 0.0
20/04:30am ESE 2 2 - - - - - - - 18.4 1017.5 0.0
20/04:00am E 2 3 - - - - - - - 18.3 1017.4 0.0
20/03:30am NE 3 4 - - - - - - - 18.4 1017.4 0.0
20/03:00am NE 4 5 - - - - - - - 18.3 1017.2 0.0
20/02:30am NE 5 6 - - - - - - - 17.7 1017.1 0.0
20/02:00am NE 5 6 - - - - - - - 17.9 1017.1 0.0
20/01:30am ENE 4 6 - - - - - - - 17.9 1017.4 0.0
20/01:00am ENE 4 5 - - - - - - - 17.9 1017.7 0.0
20/12:30am E 4 4 - - - - - - - 17.6 1018.2 0.0
20/12:00am E 4 5 - - - - - - - 17.7 1018.1 0.0
 
Date/Time
EST
Wind Sea
Height
m
Swell Vis
km
Cloud Weather Temp
°C
Press
MSL
hPa
Rain since
9am
mm
Dir  Spd
kts
Gust
kts
Height
m
Period
s
Dir
19/11:30pm NE 4 5 - - - - - - - 18.0 1018.2 0.0
19/11:00pm ENE 4 5 - - - - - - - 18.0 1018.3 0.0
19/10:30pm ENE 5 7 - - - - - - - 17.9 1018.6 0.0
19/10:00pm ENE 7 8 - - - - - - - 18.1 1018.6 0.0
19/09:30pm ENE 6 7 - - - - - - - 17.9 1018.6 0.0
19/09:00pm NE 6 8 - - - - - - - 17.8 1018.5 0.0
19/08:30pm NE 7 9 - - - - - - - 17.6 1018.4 0.0
19/08:00pm NE 6 7 - - - - - - - 17.4 1018.3 0.0
19/07:30pm NE 5 6 - - - - - - - 17.5 1018.2 0.0
19/07:00pm ENE 2 3 - - - - - - - 17.7 1018.1 0.0
19/06:30pm CALM 0 0 - - - - - - - 17.9 1018.2 0.0
19/06:00pm CALM 0 0 - - - - - - - 17.8 1017.8 0.0
19/05:30pm SSE 1 2 - - - - - - - 18.0 1017.5 0.0
19/05:00pm SE 3 3 - - - - - - - 18.6 1016.9 0.0
19/04:30pm SSE 2 4 - - - - - - - 19.4 1016.8 0.0
19/04:00pm SE 3 4 - - - - - - - 19.7 1016.5 0.0

Other formats

Comma delimited format used in spreadsheet applications
http://www.bom.gov.au/fwo/IDQ60701/IDQ60701.94372.axf

JavaScript Object Notation format (JSON) in row-major order
http://www.bom.gov.au/fwo/IDQ60701/IDQ60701.94372.json

Data quality

Most of these data are generated automatically and are frequently updated. Quality checks on data are not normally performed. It is possible for incorrect values to appear. Refer to information at About Latest Weather Observations and please check the disclaimer before using these data.